Flight Track Log - Related Links

Times and Time Zones

All times are in EDT time to prevent confusion due to time zone crossing. See the N800K flight status page for this flight to view local times or setup timezone preferences in your user account.

Time Position Orientation Groundspeed Altitude Reporting Facility
EDT Latitude Longitude Course Direction KTS MPH feet Rate Location/Type
Sun 12:37:00 PM 34.5953 -81.8837 124° Southeast  Level FlightAware Approximate
Sun 12:38:00 PM 34.5724 -81.8423 124° Southeast  Level FlightAware Approximate
Sun 12:39:00 PM 34.5494 -81.8010 124° Southeast  Level FlightAware Approximate
Sun 12:40:00 PM 34.5264 -81.7596 124° Southeast  Level FlightAware Approximate
Sun 12:41:00 PM 34.5034 -81.7183 124° Southeast  Level FlightAware Approximate
Sun 12:42:00 PM 34.4803 -81.6770 124° Southeast  Level FlightAware Approximate
Sun 12:43:00 PM 34.4573 -81.6358 124° Southeast  Level FlightAware Approximate
Sun 12:44:00 PM 34.4342 -81.5945 124° Southeast  Level FlightAware Approximate
Sun 12:45:00 PM 34.4112 -81.5533 124° Southeast  Level FlightAware Approximate
Sun 12:46:00 PM 34.3890 -81.5114 121° Southeast  Level FlightAware Approximate
Sun 12:47:00 PM 34.3677 -81.4688 121° Southeast  Level FlightAware Approximate
Sun 12:48:00 PM 34.3465 -81.4262 121° Southeast  Level FlightAware Approximate
Sun 12:49:00 PM 34.3314 -81.3810 97° East  Level FlightAware Approximate
Sun 12:50:00 PM 34.3263 -81.3317 97° East  Level FlightAware Approximate
Sun 12:51:00 PM 34.3212 -81.2823 97° East  Level FlightAware Approximate
Sun 12:52:00 PM 34.3161 -81.2329 97° East  Level FlightAware Approximate
Sun 12:53:00 PM 34.3109 -81.1836 97° East  Level FlightAware Approximate
Sun 12:54:00 PM 34.3058 -81.1342 97° East  Level FlightAware Approximate
Sun 12:55:00 PM 34.3006 -81.0849 97° East  Level FlightAware Approximate
Sun 12:56:00 PM 34.2954 -81.0356 97° East  Level FlightAware Approximate
Sun 12:57:00 PM 34.2902 -80.9862 97° East  Level FlightAware Approximate
Sun 12:58:00 PM 34.2849 -80.9369 97° East  Level FlightAware Approximate
Sun 12:59:00 PM 34.2797 -80.8876 97° East  Level FlightAware Approximate
Sun 01:00:00 PM 34.2744 -80.8383 97° East  Level FlightAware Approximate
Sun 01:01:00 PM 34.2691 -80.7890 97° East  Level FlightAware Approximate
Sun 01:02:00 PM 34.2643 -80.7396 96° East  Level FlightAware Approximate
Sun 01:03:00 PM 34.2601 -80.6901 96° East  Level FlightAware Approximate
Sun 01:04:00 PM 34.2558 -80.6407 96° East  Level FlightAware Approximate
Sun 01:05:00 PM 34.2515 -80.5912 96° East  Level FlightAware Approximate
Sun 01:06:00 PM 34.2471 -80.5418 96° East  Level FlightAware Approximate
Sun 01:07:00 PM 34.2428 -80.4924 96° East  Level FlightAware Approximate
Sun 01:08:00 PM 34.2384 -80.4430 96° East  Level FlightAware Approximate
Sun 01:09:00 PM 34.2340 -80.3935 96° East  Level FlightAware Approximate
Sun 01:10:00 PM 34.2296 -80.3441 96° East  Level FlightAware Approximate
Sun 01:11:00 PM 34.2252 -80.2947 96° East  Level FlightAware Approximate
Sun 01:12:00 PM 34.2208 -80.2453 96° East  Level FlightAware Approximate
Sun 01:13:00 PM 34.2167 -80.1959 90° East  Level FlightAware Approximate
Sun 01:14:00 PM 34.2167 -80.1462 90° East  Level FlightAware Approximate
Sun 01:15:00 PM 34.2167 -80.0965 90° East  Level FlightAware Approximate
Sun 01:16:00 PM 34.2163 -80.0469 99° East  Level FlightAware Approximate
Sun 01:17:00 PM 34.2098 -79.9978 99° East  Level FlightAware Approximate
Sun 01:18:00 PM 34.2032 -79.9488 99° East  Level FlightAware Approximate
Sun 01:19:00 PM 34.1967 -79.8997 99° East  Level FlightAware Approximate
Sun 01:20:00 PM 34.1901 -79.8507 99° East  Level FlightAware Approximate
Sun 01:21:00 PM 34.1836 -79.8017 99° East  Level FlightAware Approximate
Sun 01:22:00 PM 34.1833 -79.7520 90° East  Level FlightAware Approximate
Sun 01:23:00 PM 34.1833 -79.7167 90° East  Level FlightAware Approximate
Sun 01:24:00 PM 34.1854 -79.7239 90° East  Level Estimated
Sun 01:25:00 PM 34.1833 -79.7167 90° East  Level FlightAware Approximate
Sun 01:26:00 PM 34.1854 -79.7239 90° East  Level Estimated
Sun 01:27:00 PM 34.1833 -79.7167 90° East  Level FlightAware Approximate
Sun 01:28:00 PM 34.1854 -79.7239 90° East  Level Estimated
Sun 01:29:00 PM 34.1833 -79.7167 90° East  Level FlightAware Approximate
Sun 01:30:00 PM 34.1854 -79.7239 90° East  Level Estimated
Sun 01:31:00 PM 34.1833 -79.7167 90° East  Level FlightAware Approximate
Sun 01:32:00 PM 34.1854 -79.7239 90° East  Level Estimated
Sun 01:33:00 PM 34.1833 -79.7167 90° East  Level FlightAware Approximate
Sun 01:34:00 PM 34.1854 -79.7239 90° East  Level Estimated

Login

Don't have an account? Register now (free) for customized features, flight alerts, and more!